sensor_id;sensor_type;location;lat;lon;timestamp;P1;durP1;ratioP1;P2;durP2;ratioP2
58697;SDS011;44475;53.206;-6.106;2024-02-26T00:01:50;5.32;;;2.22;;
58697;SDS011;44475;53.206;-6.106;2024-02-26T00:04:21;7.15;;;2.10;;
58697;SDS011;44475;53.206;-6.106;2024-02-26T00:06:48;11.00;;;2.10;;
58697;SDS011;44475;53.206;-6.106;2024-02-26T00:09:17;6.05;;;2.10;;
58697;SDS011;44475;53.206;-6.106;2024-02-26T00:11:44;7.30;;;2.20;;
58697;SDS011;44475;53.206;-6.106;2024-02-26T00:14:10;8.88;;;2.17;;
58697;SDS011;44475;53.206;-6.106;2024-02-26T00:16:39;6.95;;;2.13;;
58697;SDS011;44475;53.206;-6.106;2024-02-26T00:19:07;6.32;;;2.17;;
58697;SDS011;44475;53.206;-6.106;2024-02-26T00:21:33;6.85;;;2.40;;
58697;SDS011;44475;53.206;-6.106;2024-02-26T00:24:00;5.15;;;2.10;;
58697;SDS011;44475;53.206;-6.106;2024-02-26T00:26:27;6.70;;;2.13;;
58697;SDS011;44475;53.206;-6.106;2024-02-26T00:28:54;6.82;;;2.20;;
58697;SDS011;44475;53.206;-6.106;2024-02-26T00:31:21;7.00;;;2.35;;
58697;SDS011;44475;53.206;-6.106;2024-02-26T00:33:48;5.53;;;2.05;;
58697;SDS011;44475;53.206;-6.106;2024-02-26T00:36:15;7.35;;;2.40;;
58697;SDS011;44475;53.206;-6.106;2024-02-26T00:38:44;4.03;;;2.08;;
58697;SDS011;44475;53.206;-6.106;2024-02-26T00:41:19;5.70;;;2.30;;
58697;SDS011;44475;53.206;-6.106;2024-02-26T00:43:46;5.15;;;2.00;;
58697;SDS011;44475;53.206;-6.106;2024-02-26T00:46:13;6.15;;;2.17;;
58697;SDS011;44475;53.206;-6.106;2024-02-26T00:48:40;6.07;;;2.17;;
58697;SDS011;44475;53.206;-6.106;2024-02-26T00:51:06;5.38;;;2.10;;
58697;SDS011;44475;53.206;-6.106;2024-02-26T00:53:34;4.75;;;2.10;;
58697;SDS011;44475;53.206;-6.106;2024-02-26T00:56:01;4.85;;;2.03;;
58697;SDS011;44475;53.206;-6.106;2024-02-26T00:58:27;5.10;;;2.40;;
58697;SDS011;44475;53.206;-6.106;2024-02-26T01:00:54;5.22;;;2.10;;
58697;SDS011;44475;53.206;-6.106;2024-02-26T01:03:21;5.47;;;2.20;;
58697;SDS011;44475;53.206;-6.106;2024-02-26T01:05:47;6.90;;;2.20;;
58697;SDS011;44475;53.206;-6.106;2024-02-26T01:08:14;7.55;;;2.20;;
58697;SDS011;44475;53.206;-6.106;2024-02-26T01:10:40;4.47;;;2.10;;
58697;SDS011;44475;53.206;-6.106;2024-02-26T01:13:07;6.47;;;2.20;;
58697;SDS011;44475;53.206;-6.106;2024-02-26T01:15:34;4.90;;;2.05;;
58697;SDS011;44475;53.206;-6.106;2024-02-26T01:18:01;5.18;;;2.00;;
58697;SDS011;44475;53.206;-6.106;2024-02-26T01:20:28;8.32;;;2.53;;
58697;SDS011;44475;53.206;-6.106;2024-02-26T01:22:54;6.03;;;2.10;;
58697;SDS011;44475;53.206;-6.106;2024-02-26T01:25:21;5.35;;;2.47;;
58697;SDS011;44475;53.206;-6.106;2024-02-26T01:27:47;4.38;;;2.28;;
58697;SDS011;44475;53.206;-6.106;2024-02-26T01:30:14;5.60;;;2.05;;
58697;SDS011;44475;53.206;-6.106;2024-02-26T01:32:42;5.80;;;2.13;;
58697;SDS011;44475;53.206;-6.106;2024-02-26T01:35:08;4.38;;;2.10;;
58697;SDS011;44475;53.206;-6.106;2024-02-26T01:37:37;7.28;;;2.10;;
58697;SDS011;44475;53.206;-6.106;2024-02-26T01:40:05;5.30;;;2.20;;
58697;SDS011;44475;53.206;-6.106;2024-02-26T01:42:32;5.80;;;2.25;;
58697;SDS011;44475;53.206;-6.106;2024-02-26T01:44:59;5.05;;;2.20;;
58697;SDS011;44475;53.206;-6.106;2024-02-26T01:47:26;10.10;;;2.50;;
58697;SDS011;44475;53.206;-6.106;2024-02-26T01:49:55;4.45;;;1.95;;
58697;SDS011;44475;53.206;-6.106;2024-02-26T01:52:22;8.25;;;2.10;;
58697;SDS011;44475;53.206;-6.106;2024-02-26T01:54:49;5.40;;;2.10;;
58697;SDS011;44475;53.206;-6.106;2024-02-26T01:57:17;4.78;;;2.13;;
58697;SDS011;44475;53.206;-6.106;2024-02-26T01:59:44;4.38;;;2.17;;
58697;SDS011;44475;53.206;-6.106;2024-02-26T02:02:11;5.47;;;2.20;;
58697;SDS011;44475;53.206;-6.106;2024-02-26T02:04:38;5.43;;;2.25;;
58697;SDS011;44475;53.206;-6.106;2024-02-26T02:07:04;5.03;;;2.20;;
58697;SDS011;44475;53.206;-6.106;2024-02-26T02:09:32;6.68;;;2.40;;
58697;SDS011;44475;53.206;-6.106;2024-02-26T02:11:59;6.25;;;2.30;;
58697;SDS011;44475;53.206;-6.106;2024-02-26T02:14:26;4.13;;;2.20;;
58697;SDS011;44475;53.206;-6.106;2024-02-26T02:16:54;5.40;;;2.20;;
58697;SDS011;44475;53.206;-6.106;2024-02-26T02:19:21;3.88;;;1.98;;
58697;SDS011;44475;53.206;-6.106;2024-02-26T02:21:47;4.07;;;2.05;;
58697;SDS011;44475;53.206;-6.106;2024-02-26T02:24:15;4.22;;;2.00;;
58697;SDS011;44475;53.206;-6.106;2024-02-26T02:26:42;4.70;;;1.90;;
58697;SDS011;44475;53.206;-6.106;2024-02-26T02:29:09;3.90;;;2.10;;
58697;SDS011;44475;53.206;-6.106;2024-02-26T02:31:37;5.00;;;2.00;;
58697;SDS011;44475;53.206;-6.106;2024-02-26T02:34:03;5.20;;;2.17;;
58697;SDS011;44475;53.206;-6.106;2024-02-26T02:36:30;4.00;;;1.90;;
58697;SDS011;44475;53.206;-6.106;2024-02-26T02:38:56;4.97;;;1.85;;
58697;SDS011;44475;53.206;-6.106;2024-02-26T02:41:23;4.85;;;1.98;;
58697;SDS011;44475;53.206;-6.106;2024-02-26T02:43:51;3.85;;;1.90;;
58697;SDS011;44475;53.206;-6.106;2024-02-26T02:46:18;4.38;;;2.10;;
58697;SDS011;44475;53.206;-6.106;2024-02-26T02:48:45;4.35;;;2.05;;
58697;SDS011;44475;53.206;-6.106;2024-02-26T02:51:11;3.58;;;1.90;;
58697;SDS011;44475;53.206;-6.106;2024-02-26T02:53:39;4.03;;;2.10;;
58697;SDS011;44475;53.206;-6.106;2024-02-26T02:56:06;3.47;;;1.80;;
58697;SDS011;44475;53.206;-6.106;2024-02-26T02:58:32;5.80;;;1.92;;
58697;SDS011;44475;53.206;-6.106;2024-02-26T03:00:59;2.97;;;1.90;;
58697;SDS011;44475;53.206;-6.106;2024-02-26T03:03:26;4.63;;;1.80;;
58697;SDS011;44475;53.206;-6.106;2024-02-26T03:05:53;3.72;;;1.88;;
58697;SDS011;44475;53.206;-6.106;2024-02-26T03:08:21;3.50;;;1.80;;
58697;SDS011;44475;53.206;-6.106;2024-02-26T03:10:47;3.13;;;2.00;;
58697;SDS011;44475;53.206;-6.106;2024-02-26T03:13:13;4.57;;;1.98;;
58697;SDS011;44475;53.206;-6.106;2024-02-26T03:15:40;2.72;;;1.70;;
58697;SDS011;44475;53.206;-6.106;2024-02-26T03:18:06;5.57;;;1.92;;
58697;SDS011;44475;53.206;-6.106;2024-02-26T03:20:33;5.07;;;1.95;;
58697;SDS011;44475;53.206;-6.106;2024-02-26T03:23:01;3.40;;;1.90;;
58697;SDS011;44475;53.206;-6.106;2024-02-26T03:25:28;4.38;;;2.00;;
58697;SDS011;44475;53.206;-6.106;2024-02-26T03:27:54;3.20;;;1.80;;
58697;SDS011;44475;53.206;-6.106;2024-02-26T03:30:21;3.38;;;1.77;;
58697;SDS011;44475;53.206;-6.106;2024-02-26T03:32:47;4.00;;;1.95;;
58697;SDS011;44475;53.206;-6.106;2024-02-26T03:35:15;2.63;;;1.90;;
58697;SDS011;44475;53.206;-6.106;2024-02-26T03:37:42;3.50;;;1.90;;
58697;SDS011;44475;53.206;-6.106;2024-02-26T03:40:09;3.03;;;1.80;;
58697;SDS011;44475;53.206;-6.106;2024-02-26T03:42:38;2.80;;;1.70;;
58697;SDS011;44475;53.206;-6.106;2024-02-26T03:45:05;3.22;;;1.88;;
58697;SDS011;44475;53.206;-6.106;2024-02-26T03:47:32;3.90;;;1.83;;
58697;SDS011;44475;53.206;-6.106;2024-02-26T03:49:59;4.65;;;2.00;;
58697;SDS011;44475;53.206;-6.106;2024-02-26T05:09:17;2.97;;;1.60;;
58697;SDS011;44475;53.206;-6.106;2024-02-26T05:11:44;2.85;;;1.70;;
58697;SDS011;44475;53.206;-6.106;2024-02-26T05:14:12;2.60;;;1.75;;
58697;SDS011;44475;53.206;-6.106;2024-02-26T05:16:38;3.03;;;1.70;;
58697;SDS011;44475;53.206;-6.106;2024-02-26T05:19:05;2.65;;;1.70;;
58697;SDS011;44475;53.206;-6.106;2024-02-26T05:21:32;2.22;;;1.67;;
58697;SDS011;44475;53.206;-6.106;2024-02-26T05:24:00;3.00;;;1.80;;
58697;SDS011;44475;53.206;-6.106;2024-02-26T05:26:27;3.60;;;1.80;;
58697;SDS011;44475;53.206;-6.106;2024-02-26T05:28:53;2.58;;;1.60;;
58697;SDS011;44475;53.206;-6.106;2024-02-26T05:31:25;3.25;;;1.90;;
58697;SDS011;44475;53.206;-6.106;2024-02-26T05:33:52;2.65;;;1.75;;
58697;SDS011;44475;53.206;-6.106;2024-02-26T05:36:19;2.42;;;1.67;;
58697;SDS011;44475;53.206;-6.106;2024-02-26T05:38:48;1.88;;;1.50;;
58697;SDS011;44475;53.206;-6.106;2024-02-26T05:41:15;2.03;;;1.60;;
58697;SDS011;44475;53.206;-6.106;2024-02-26T05:43:46;2.47;;;1.67;;
58697;SDS011;44475;53.206;-6.106;2024-02-26T05:46:13;2.53;;;1.75;;
58697;SDS011;44475;53.206;-6.106;2024-02-26T05:48:39;2.90;;;1.70;;
58697;SDS011;44475;53.206;-6.106;2024-02-26T05:51:06;3.58;;;1.60;;
58697;SDS011;44475;53.206;-6.106;2024-02-26T05:53:33;2.90;;;1.60;;
58697;SDS011;44475;53.206;-6.106;2024-02-26T05:56:00;2.05;;;1.60;;
58697;SDS011;44475;53.206;-6.106;2024-02-26T05:58:27;3.05;;;1.80;;
58697;SDS011;44475;53.206;-6.106;2024-02-26T06:00:53;3.83;;;1.75;;
58697;SDS011;44475;53.206;-6.106;2024-02-26T06:03:21;3.67;;;1.80;;
58697;SDS011;44475;53.206;-6.106;2024-02-26T06:05:48;2.30;;;1.55;;
58697;SDS011;44475;53.206;-6.106;2024-02-26T06:08:15;2.20;;;1.60;;
58697;SDS011;44475;53.206;-6.106;2024-02-26T06:10:42;2.65;;;1.60;;
58697;SDS011;44475;53.206;-6.106;2024-02-26T06:13:08;3.88;;;1.50;;
58697;SDS011;44475;53.206;-6.106;2024-02-26T06:15:35;1.73;;;1.40;;
58697;SDS011;44475;53.206;-6.106;2024-02-26T06:18:03;2.70;;;1.60;;
58697;SDS011;44475;53.206;-6.106;2024-02-26T06:20:30;1.83;;;1.50;;
58697;SDS011;44475;53.206;-6.106;2024-02-26T06:22:57;1.67;;;1.48;;
58697;SDS011;44475;53.206;-6.106;2024-02-26T06:25:23;2.90;;;1.60;;
58697;SDS011;44475;53.206;-6.106;2024-02-26T06:27:51;13.93;;;2.45;;
58697;SDS011;44475;53.206;-6.106;2024-02-26T06:30:18;4.85;;;1.50;;
58697;SDS011;44475;53.206;-6.106;2024-02-26T06:32:44;2.20;;;1.75;;
58697;SDS011;44475;53.206;-6.106;2024-02-26T06:35:12;2.70;;;1.55;;
58697;SDS011;44475;53.206;-6.106;2024-02-26T06:37:39;1.40;;;1.30;;
58697;SDS011;44475;53.206;-6.106;2024-02-26T06:40:06;2.35;;;1.60;;
58697;SDS011;44475;53.206;-6.106;2024-02-26T06:42:33;2.45;;;1.55;;
58697;SDS011;44475;53.206;-6.106;2024-02-26T06:45:01;2.17;;;1.30;;
58697;SDS011;44475;53.206;-6.106;2024-02-26T06:47:29;2.83;;;1.38;;
58697;SDS011;44475;53.206;-6.106;2024-02-26T06:49:56;1.60;;;1.40;;
58697;SDS011;44475;53.206;-6.106;2024-02-26T06:52:23;2.78;;;1.50;;
58697;SDS011;44475;53.206;-6.106;2024-02-26T06:54:51;1.52;;;1.30;;
58697;SDS011;44475;53.206;-6.106;2024-02-26T06:57:19;2.00;;;1.40;;
58697;SDS011;44475;53.206;-6.106;2024-02-26T06:59:47;1.95;;;1.40;;
58697;SDS011;44475;53.206;-6.106;2024-02-26T07:02:14;1.70;;;1.30;;
58697;SDS011;44475;53.206;-6.106;2024-02-26T07:04:43;1.40;;;1.30;;
58697;SDS011;44475;53.206;-6.106;2024-02-26T07:07:10;1.50;;;1.30;;
58697;SDS011;44475;53.206;-6.106;2024-02-26T07:09:41;1.75;;;1.38;;
58697;SDS011;44475;53.206;-6.106;2024-02-26T07:12:08;2.58;;;1.50;;
58697;SDS011;44475;53.206;-6.106;2024-02-26T07:14:35;2.38;;;1.45;;
58697;SDS011;44475;53.206;-6.106;2024-02-26T07:17:03;1.60;;;1.50;;
58697;SDS011;44475;53.206;-6.106;2024-02-26T07:19:30;1.55;;;1.30;;
58697;SDS011;44475;53.206;-6.106;2024-02-26T07:21:57;1.95;;;1.33;;
58697;SDS011;44475;53.206;-6.106;2024-02-26T07:24:23;2.15;;;1.30;;
58697;SDS011;44475;53.206;-6.106;2024-02-26T07:26:50;1.98;;;1.30;;
58697;SDS011;44475;53.206;-6.106;2024-02-26T07:29:17;6.03;;;1.40;;
58697;SDS011;44475;53.206;-6.106;2024-02-26T07:31:44;2.75;;;1.40;;
58697;SDS011;44475;53.206;-6.106;2024-02-26T07:34:10;1.90;;;1.40;;
58697;SDS011;44475;53.206;-6.106;2024-02-26T07:36:37;3.30;;;1.40;;
58697;SDS011;44475;53.206;-6.106;2024-02-26T07:39:05;4.00;;;1.33;;
58697;SDS011;44475;53.206;-6.106;2024-02-26T07:41:31;2.72;;;1.52;;
58697;SDS011;44475;53.206;-6.106;2024-02-26T07:43:59;2.70;;;1.35;;
58697;SDS011;44475;53.206;-6.106;2024-02-26T07:46:25;2.17;;;1.27;;
58697;SDS011;44475;53.206;-6.106;2024-02-26T07:48:52;2.03;;;1.30;;
58697;SDS011;44475;53.206;-6.106;2024-02-26T07:51:19;3.35;;;1.50;;
58697;SDS011;44475;53.206;-6.106;2024-02-26T07:53:45;2.25;;;1.40;;
58697;SDS011;44475;53.206;-6.106;2024-02-26T07:56:12;1.83;;;1.27;;
58697;SDS011;44475;53.206;-6.106;2024-02-26T07:58:40;2.10;;;1.20;;
58697;SDS011;44475;53.206;-6.106;2024-02-26T08:01:07;3.03;;;1.40;;
58697;SDS011;44475;53.206;-6.106;2024-02-26T08:03:33;2.33;;;1.40;;
58697;SDS011;44475;53.206;-6.106;2024-02-26T08:06:00;2.60;;;1.55;;
58697;SDS011;44475;53.206;-6.106;2024-02-26T08:08:26;2.10;;;1.30;;
58697;SDS011;44475;53.206;-6.106;2024-02-26T08:10:53;1.98;;;1.30;;
58697;SDS011;44475;53.206;-6.106;2024-02-26T08:13:19;2.10;;;1.40;;
58697;SDS011;44475;53.206;-6.106;2024-02-26T08:15:46;1.92;;;1.20;;
58697;SDS011;44475;53.206;-6.106;2024-02-26T08:18:12;2.10;;;1.30;;
58697;SDS011;44475;53.206;-6.106;2024-02-26T08:20:39;3.03;;;1.50;;
58697;SDS011;44475;53.206;-6.106;2024-02-26T08:23:05;2.10;;;1.30;;
58697;SDS011;44475;53.206;-6.106;2024-02-26T08:25:32;2.28;;;1.20;;
58697;SDS011;44475;53.206;-6.106;2024-02-26T08:28:00;2.67;;;1.48;;
58697;SDS011;44475;53.206;-6.106;2024-02-26T08:30:26;3.03;;;1.30;;
58697;SDS011;44475;53.206;-6.106;2024-02-26T08:32:53;1.67;;;1.27;;
58697;SDS011;44475;53.206;-6.106;2024-02-26T08:35:19;2.50;;;1.35;;
58697;SDS011;44475;53.206;-6.106;2024-02-26T08:37:46;2.92;;;1.33;;
58697;SDS011;44475;53.206;-6.106;2024-02-26T08:40:13;1.42;;;1.20;;
58697;SDS011;44475;53.206;-6.106;2024-02-26T08:42:40;2.25;;;1.30;;
58697;SDS011;44475;53.206;-6.106;2024-02-26T08:45:07;3.20;;;1.30;;
58697;SDS011;44475;53.206;-6.106;2024-02-26T08:47:35;2.60;;;1.30;;
58697;SDS011;44475;53.206;-6.106;2024-02-26T08:50:02;2.08;;;1.23;;
58697;SDS011;44475;53.206;-6.106;2024-02-26T08:52:29;1.80;;;1.20;;
58697;SDS011;44475;53.206;-6.106;2024-02-26T08:54:56;1.45;;;1.15;;
58697;SDS011;44475;53.206;-6.106;2024-02-26T08:57:23;1.35;;;1.10;;
58697;SDS011;44475;53.206;-6.106;2024-02-26T08:59:51;1.33;;;1.20;;
58697;SDS011;44475;53.206;-6.106;2024-02-26T09:02:17;1.77;;;1.30;;
58697;SDS011;44475;53.206;-6.106;2024-02-26T09:04:45;3.15;;;1.20;;
58697;SDS011;44475;53.206;-6.106;2024-02-26T09:07:12;2.33;;;1.20;;
58697;SDS011;44475;53.206;-6.106;2024-02-26T09:09:39;1.75;;;1.20;;
58697;SDS011;44475;53.206;-6.106;2024-02-26T09:12:06;1.83;;;1.20;;
58697;SDS011;44475;53.206;-6.106;2024-02-26T09:14:32;6.35;;;1.20;;
58697;SDS011;44475;53.206;-6.106;2024-02-26T09:16:59;1.75;;;1.23;;
58697;SDS011;44475;53.206;-6.106;2024-02-26T09:19:26;2.10;;;1.30;;
58697;SDS011;44475;53.206;-6.106;2024-02-26T09:21:53;1.63;;;1.10;;
58697;SDS011;44475;53.206;-6.106;2024-02-26T09:24:23;2.03;;;1.23;;
58697;SDS011;44475;53.206;-6.106;2024-02-26T09:26:50;1.95;;;1.17;;
58697;SDS011;44475;53.206;-6.106;2024-02-26T09:29:17;1.23;;;1.10;;
58697;SDS011;44475;53.206;-6.106;2024-02-26T09:31:44;1.80;;;1.30;;
58697;SDS011;44475;53.206;-6.106;2024-02-26T09:34:13;1.25;;;0.98;;
58697;SDS011;44475;53.206;-6.106;2024-02-26T09:36:40;1.63;;;1.10;;
58697;SDS011;44475;53.206;-6.106;2024-02-26T09:39:07;2.22;;;1.20;;
58697;SDS011;44475;53.206;-6.106;2024-02-26T09:41:37;1.73;;;1.08;;
58697;SDS011;44475;53.206;-6.106;2024-02-26T09:44:05;1.38;;;1.10;;
58697;SDS011;44475;53.206;-6.106;2024-02-26T09:46:33;3.97;;;1.30;;
58697;SDS011;44475;53.206;-6.106;2024-02-26T09:49:00;2.10;;;1.20;;
58697;SDS011;44475;53.206;-6.106;2024-02-26T09:51:27;4.05;;;1.27;;
58697;SDS011;44475;53.206;-6.106;2024-02-26T09:53:54;1.17;;;1.08;;
58697;SDS011;44475;53.206;-6.106;2024-02-26T09:56:23;1.00;;;1.00;;
58697;SDS011;44475;53.206;-6.106;2024-02-26T09:58:52;1.40;;;0.90;;
58697;SDS011;44475;53.206;-6.106;2024-02-26T10:01:20;1.88;;;1.30;;
58697;SDS011;44475;53.206;-6.106;2024-02-26T10:03:50;3.08;;;1.20;;
58697;SDS011;44475;53.206;-6.106;2024-02-26T10:06:19;1.40;;;1.15;;
58697;SDS011;44475;53.206;-6.106;2024-02-26T10:08:46;1.48;;;1.10;;
58697;SDS011;44475;53.206;-6.106;2024-02-26T10:11:14;1.55;;;1.20;;
58697;SDS011;44475;53.206;-6.106;2024-02-26T10:13:41;1.67;;;1.10;;
58697;SDS011;44475;53.206;-6.106;2024-02-26T10:16:08;2.35;;;1.10;;
58697;SDS011;44475;53.206;-6.106;2024-02-26T10:21:32;1.38;;;1.05;;
58697;SDS011;44475;53.206;-6.106;2024-02-26T10:23:59;1.33;;;1.10;;
58697;SDS011;44475;53.206;-6.106;2024-02-26T10:26:26;1.35;;;1.10;;
58697;SDS011;44475;53.206;-6.106;2024-02-26T10:28:54;1.10;;;1.00;;
58697;SDS011;44475;53.206;-6.106;2024-02-26T10:33:55;1.13;;;1.02;;
58697;SDS011;44475;53.206;-6.106;2024-02-26T10:36:23;1.25;;;1.15;;
58697;SDS011;44475;53.206;-6.106;2024-02-26T10:38:54;2.00;;;1.10;;
58697;SDS011;44475;53.206;-6.106;2024-02-26T10:41:21;1.73;;;1.30;;
58697;SDS011;44475;53.206;-6.106;2024-02-26T10:43:49;1.20;;;1.10;;
58697;SDS011;44475;53.206;-6.106;2024-02-26T10:46:17;1.67;;;1.10;;
58697;SDS011;44475;53.206;-6.106;2024-02-26T10:48:51;2.10;;;1.10;;
58697;SDS011;44475;53.206;-6.106;2024-02-26T10:53:44;1.65;;;1.08;;
58697;SDS011;44475;53.206;-6.106;2024-02-26T10:56:12;1.63;;;1.00;;
58697;SDS011;44475;53.206;-6.106;2024-02-26T10:58:40;1.48;;;1.13;;
58697;SDS011;44475;53.206;-6.106;2024-02-26T11:01:08;1.85;;;1.13;;
58697;SDS011;44475;53.206;-6.106;2024-02-26T11:03:35;1.30;;;1.02;;
58697;SDS011;44475;53.206;-6.106;2024-02-26T11:06:05;1.73;;;1.20;;
58697;SDS011;44475;53.206;-6.106;2024-02-26T11:08:32;1.20;;;1.10;;
58697;SDS011;44475;53.206;-6.106;2024-02-26T11:10:59;1.00;;;1.00;;
58697;SDS011;44475;53.206;-6.106;2024-02-26T11:13:27;1.63;;;1.00;;
58697;SDS011;44475;53.206;-6.106;2024-02-26T11:15:56;1.83;;;1.30;;
58697;SDS011;44475;53.206;-6.106;2024-02-26T11:18:23;2.10;;;1.15;;
58697;SDS011;44475;53.206;-6.106;2024-02-26T11:20:50;1.85;;;1.25;;
58697;SDS011;44475;53.206;-6.106;2024-02-26T11:23:20;1.58;;;1.10;;
58697;SDS011;44475;53.206;-6.106;2024-02-26T11:25:47;1.55;;;1.10;;
58697;SDS011;44475;53.206;-6.106;2024-02-26T11:28:14;1.95;;;1.20;;
58697;SDS011;44475;53.206;-6.106;2024-02-26T11:30:44;0.80;;;0.80;;
58697;SDS011;44475;53.206;-6.106;2024-02-26T11:33:12;1.27;;;1.00;;
58697;SDS011;44475;53.206;-6.106;2024-02-26T11:35:40;1.30;;;1.08;;
58697;SDS011;44475;53.206;-6.106;2024-02-26T11:38:07;2.15;;;1.13;;
58697;SDS011;44475;53.206;-6.106;2024-02-26T11:40:38;2.35;;;1.25;;
58697;SDS011;44475;53.206;-6.106;2024-02-26T11:43:06;3.40;;;1.15;;
58697;SDS011;44475;53.206;-6.106;2024-02-26T11:48:14;1.80;;;1.10;;
58697;SDS011;44475;53.206;-6.106;2024-02-26T11:50:46;2.60;;;1.20;;
58697;SDS011;44475;53.206;-6.106;2024-02-26T11:56:11;2.20;;;1.00;;
58697;SDS011;44475;53.206;-6.106;2024-02-26T11:58:38;1.38;;;1.10;;
58697;SDS011;44475;53.206;-6.106;2024-02-26T12:01:35;2.08;;;1.20;;
58697;SDS011;44475;53.206;-6.106;2024-02-26T12:03:54;4.20;;;1.20;;
58697;SDS011;44475;53.206;-6.106;2024-02-26T12:06:21;6.13;;;1.10;;
58697;SDS011;44475;53.206;-6.106;2024-02-26T12:08:48;2.45;;;0.82;;
58697;SDS011;44475;53.206;-6.106;2024-02-26T12:11:16;2.97;;;1.10;;
58697;SDS011;44475;53.206;-6.106;2024-02-26T12:13:45;1.80;;;1.00;;
58697;SDS011;44475;53.206;-6.106;2024-02-26T12:16:35;2.55;;;1.00;;
58697;SDS011;44475;53.206;-6.106;2024-02-26T12:19:06;1.65;;;1.10;;
58697;SDS011;44475;53.206;-6.106;2024-02-26T12:21:34;2.20;;;0.90;;
58697;SDS011;44475;53.206;-6.106;2024-02-26T12:24:14;1.20;;;1.00;;
58697;SDS011;44475;53.206;-6.106;2024-02-26T12:26:42;4.15;;;1.20;;
58697;SDS011;44475;53.206;-6.106;2024-02-26T12:29:10;2.20;;;1.02;;
58697;SDS011;44475;53.206;-6.106;2024-02-26T12:31:38;1.50;;;1.00;;
58697;SDS011;44475;53.206;-6.106;2024-02-26T12:34:06;1.55;;;1.10;;
58697;SDS011;44475;53.206;-6.106;2024-02-26T12:36:35;1.27;;;0.90;;
58697;SDS011;44475;53.206;-6.106;2024-02-26T12:39:02;2.38;;;1.10;;
58697;SDS011;44475;53.206;-6.106;2024-02-26T12:41:32;1.13;;;0.93;;
58697;SDS011;44475;53.206;-6.106;2024-02-26T12:43:59;2.00;;;1.10;;
58697;SDS011;44475;53.206;-6.106;2024-02-26T12:46:27;2.42;;;1.17;;
58697;SDS011;44475;53.206;-6.106;2024-02-26T12:48:58;1.48;;;1.02;;
58697;SDS011;44475;53.206;-6.106;2024-02-26T12:51:25;3.53;;;1.10;;
58697;SDS011;44475;53.206;-6.106;2024-02-26T12:53:53;1.90;;;1.00;;
58697;SDS011;44475;53.206;-6.106;2024-02-26T12:56:20;1.70;;;1.02;;
58697;SDS011;44475;53.206;-6.106;2024-02-26T12:58:49;2.20;;;1.10;;
58697;SDS011;44475;53.206;-6.106;2024-02-26T13:01:17;2.10;;;1.17;;
58697;SDS011;44475;53.206;-6.106;2024-02-26T13:03:44;1.98;;;1.05;;
58697;SDS011;44475;53.206;-6.106;2024-02-26T13:06:13;2.22;;;1.00;;
58697;SDS011;44475;53.206;-6.106;2024-02-26T13:08:40;1.65;;;1.10;;
58697;SDS011;44475;53.206;-6.106;2024-02-26T13:11:08;4.38;;;1.20;;
58697;SDS011;44475;53.206;-6.106;2024-02-26T13:13:35;2.05;;;1.00;;
58697;SDS011;44475;53.206;-6.106;2024-02-26T13:16:03;1.55;;;1.20;;
58697;SDS011;44475;53.206;-6.106;2024-02-26T13:18:30;1.77;;;1.08;;
58697;SDS011;44475;53.206;-6.106;2024-02-26T13:21:10;1.42;;;1.00;;
58697;SDS011;44475;53.206;-6.106;2024-02-26T13:23:38;2.15;;;1.10;;
58697;SDS011;44475;53.206;-6.106;2024-02-26T13:26:05;2.33;;;1.13;;
58697;SDS011;44475;53.206;-6.106;2024-02-26T13:28:32;1.50;;;1.10;;
58697;SDS011;44475;53.206;-6.106;2024-02-26T13:30:59;2.95;;;1.20;;
58697;SDS011;44475;53.206;-6.106;2024-02-26T13:33:27;2.92;;;1.50;;
58697;SDS011;44475;53.206;-6.106;2024-02-26T13:35:54;1.77;;;1.20;;
58697;SDS011;44475;53.206;-6.106;2024-02-26T13:38:22;1.63;;;1.20;;
58697;SDS011;44475;53.206;-6.106;2024-02-26T13:40:50;2.97;;;1.25;;
58697;SDS011;44475;53.206;-6.106;2024-02-26T13:43:17;3.80;;;1.10;;
58697;SDS011;44475;53.206;-6.106;2024-02-26T13:45:45;3.03;;;1.30;;
58697;SDS011;44475;53.206;-6.106;2024-02-26T13:48:13;3.97;;;1.35;;
58697;SDS011;44475;53.206;-6.106;2024-02-26T13:50:40;3.28;;;1.63;;
58697;SDS011;44475;53.206;-6.106;2024-02-26T13:53:08;2.42;;;1.33;;
58697;SDS011;44475;53.206;-6.106;2024-02-26T13:55:35;2.40;;;1.30;;
58697;SDS011;44475;53.206;-6.106;2024-02-26T13:58:02;3.50;;;1.25;;
58697;SDS011;44475;53.206;-6.106;2024-02-26T14:00:29;2.47;;;1.27;;
58697;SDS011;44475;53.206;-6.106;2024-02-26T14:03:00;2.95;;;1.30;;
58697;SDS011;44475;53.206;-6.106;2024-02-26T14:05:26;2.20;;;1.20;;
58697;SDS011;44475;53.206;-6.106;2024-02-26T14:07:53;3.65;;;1.30;;
58697;SDS011;44475;53.206;-6.106;2024-02-26T14:10:20;2.42;;;1.15;;
58697;SDS011;44475;53.206;-6.106;2024-02-26T14:12:47;2.38;;;1.20;;
58697;SDS011;44475;53.206;-6.106;2024-02-26T14:15:14;2.25;;;1.25;;
58697;SDS011;44475;53.206;-6.106;2024-02-26T14:17:40;2.92;;;1.20;;
58697;SDS011;44475;53.206;-6.106;2024-02-26T14:20:09;1.98;;;1.08;;
58697;SDS011;44475;53.206;-6.106;2024-02-26T14:22:36;4.50;;;1.33;;
58697;SDS011;44475;53.206;-6.106;2024-02-26T14:25:02;3.00;;;1.33;;
58697;SDS011;44475;53.206;-6.106;2024-02-26T14:27:29;3.40;;;1.20;;
58697;SDS011;44475;53.206;-6.106;2024-02-26T14:29:56;3.63;;;1.35;;
58697;SDS011;44475;53.206;-6.106;2024-02-26T14:32:23;3.60;;;1.35;;
58697;SDS011;44475;53.206;-6.106;2024-02-26T14:34:49;1.83;;;1.13;;
58697;SDS011;44475;53.206;-6.106;2024-02-26T14:37:16;2.63;;;1.20;;
58697;SDS011;44475;53.206;-6.106;2024-02-26T14:39:43;1.30;;;1.10;;
58697;SDS011;44475;53.206;-6.106;2024-02-26T14:42:11;3.45;;;1.10;;
58697;SDS011;44475;53.206;-6.106;2024-02-26T14:44:37;2.38;;;1.30;;
58697;SDS011;44475;53.206;-6.106;2024-02-26T14:47:04;1.65;;;1.20;;
58697;SDS011;44475;53.206;-6.106;2024-02-26T14:49:31;2.58;;;1.40;;
58697;SDS011;44475;53.206;-6.106;2024-02-26T14:51:57;3.22;;;1.38;;
58697;SDS011;44475;53.206;-6.106;2024-02-26T14:54:24;3.78;;;1.30;;
58697;SDS011;44475;53.206;-6.106;2024-02-26T14:56:50;3.05;;;1.40;;
58697;SDS011;44475;53.206;-6.106;2024-02-26T14:59:17;2.40;;;1.15;;
58697;SDS011;44475;53.206;-6.106;2024-02-26T15:01:43;2.97;;;1.23;;
58697;SDS011;44475;53.206;-6.106;2024-02-26T15:04:10;3.38;;;1.23;;
58697;SDS011;44475;53.206;-6.106;2024-02-26T15:06:37;2.15;;;1.27;;
58697;SDS011;44475;53.206;-6.106;2024-02-26T15:09:05;2.78;;;1.10;;
58697;SDS011;44475;53.206;-6.106;2024-02-26T15:11:33;1.90;;;1.13;;
58697;SDS011;44475;53.206;-6.106;2024-02-26T15:13:59;3.65;;;1.25;;
58697;SDS011;44475;53.206;-6.106;2024-02-26T15:16:26;2.65;;;1.30;;
58697;SDS011;44475;53.206;-6.106;2024-02-26T15:18:54;3.10;;;1.35;;
58697;SDS011;44475;53.206;-6.106;2024-02-26T15:21:21;3.00;;;1.33;;
58697;SDS011;44475;53.206;-6.106;2024-02-26T15:23:47;2.40;;;1.17;;
58697;SDS011;44475;53.206;-6.106;2024-02-26T15:26:17;2.85;;;1.30;;
58697;SDS011;44475;53.206;-6.106;2024-02-26T15:28:44;1.42;;;1.10;;
58697;SDS011;44475;53.206;-6.106;2024-02-26T15:31:11;5.53;;;1.38;;
58697;SDS011;44475;53.206;-6.106;2024-02-26T15:33:38;4.03;;;1.42;;
58697;SDS011;44475;53.206;-6.106;2024-02-26T15:36:04;2.10;;;1.20;;
58697;SDS011;44475;53.206;-6.106;2024-02-26T15:38:35;2.28;;;1.20;;
58697;SDS011;44475;53.206;-6.106;2024-02-26T15:41:10;3.80;;;1.25;;
58697;SDS011;44475;53.206;-6.106;2024-02-26T15:43:37;2.55;;;1.20;;
58697;SDS011;44475;53.206;-6.106;2024-02-26T15:46:04;5.30;;;1.40;;
58697;SDS011;44475;53.206;-6.106;2024-02-26T15:48:33;2.25;;;1.30;;
58697;SDS011;44475;53.206;-6.106;2024-02-26T15:51:02;3.33;;;1.40;;
58697;SDS011;44475;53.206;-6.106;2024-02-26T15:53:28;2.85;;;1.27;;
58697;SDS011;44475;53.206;-6.106;2024-02-26T15:55:55;3.35;;;1.50;;
58697;SDS011;44475;53.206;-6.106;2024-02-26T15:58:22;2.30;;;1.20;;
58697;SDS011;44475;53.206;-6.106;2024-02-26T16:00:49;4.80;;;1.40;;
58697;SDS011;44475;53.206;-6.106;2024-02-26T16:03:16;4.63;;;1.55;;
58697;SDS011;44475;53.206;-6.106;2024-02-26T16:05:42;3.75;;;1.45;;